Time;durP1;ratioP1;P1;durP2;ratioP2;P2;SDS_P1;SDS_P2;PMS_P1;PMS_P2;Temp;Humidity;BMP_temperature;BMP_pressure;BME280_temperature;BME280_humidity;BME280_pressure;Samples;Min_cycle;Max_cycle;Signal;HPM_P1;HPM_P2
2024/04/11 00:02:15;;;;;;;5.22;1.30;;;12.70;99.90;;;;;;9037995;26;20003;-72
2024/04/11 00:06:18;;;;;;;6.55;1.55;;;12.80;99.90;;;;;;9035354;26;20342;-71
2024/04/11 00:10:19;;;;;;;;;;;12.70;99.90;;;;;;9040386;26;20004;-72
2024/04/11 00:14:21;;;;;;;4.80;1.10;;;12.80;99.90;;;;;;9066481;25;20372;-71
2024/04/11 00:18:24;;;;;;;;;;;12.70;99.90;;;;;;9017428;26;19932;-72
2024/04/11 00:22:26;;;;;;;;;;;12.70;99.90;;;;;;9036924;26;20795;-71
2024/04/11 00:26:28;;;;;;;;;;;12.80;99.90;;;;;;9041995;26;19949;-71
2024/04/11 00:30:30;;;;;;;;;;;12.80;99.90;;;;;;9042304;26;19944;-71
2024/04/11 00:34:33;;;;;;;;;;;12.80;99.90;;;;;;9034196;26;19925;-72
2024/04/11 00:38:35;;;;;;;;;;;12.80;99.90;;;;;;9040386;26;19928;-72
2024/04/11 00:42:37;;;;;;;;;;;12.70;99.90;;;;;;9050175;26;19932;-72
2024/04/11 00:46:40;;;;;;;;;;;12.70;99.90;;;;;;9035010;26;19925;-72
2024/04/11 00:50:42;;;;;;;;;;;12.70;99.90;;;;;;9043409;26;19925;-71
2024/04/11 00:54:45;;;;;;;;;;;12.70;99.90;;;;;;9048573;26;19956;-72
2024/04/11 00:58:47;;;;;;;;;;;12.70;99.90;;;;;;9032889;25;19931;-71
2024/04/11 01:02:49;;;;;;;;;;;12.70;99.90;;;;;;9040913;26;20281;-72
2024/04/11 01:07:07;;;;;;;;;;;12.70;99.90;;;;;;9033371;26;20000;-71
2024/04/11 01:11:09;;;;;;;;;;;12.70;99.90;;;;;;9041104;26;19936;-71
2024/04/11 01:15:11;;;;;;;;;;;12.70;99.90;;;;;;9037445;26;19944;-72
2024/04/11 01:19:13;;;;;;;;;;;12.60;99.90;;;;;;9037230;26;20348;-72
2024/04/11 01:23:15;;;;;;;;;;;12.60;99.90;;;;;;9041517;26;19925;-72
2024/04/11 01:27:17;;;;;;;;;;;12.60;99.90;;;;;;9027483;26;20298;-72
2024/04/11 01:31:18;;;;;;;;;;;12.60;99.90;;;;;;9051887;26;19935;-72
2024/04/11 01:35:20;;;;;;;;;;;12.60;99.90;;;;;;9034610;26;19930;-72
2024/04/11 01:39:22;;;;;;;;;;;12.60;99.90;;;;;;9032540;26;19932;-71
2024/04/11 01:43:24;;;;;;;;;;;12.60;99.90;;;;;;9086533;25;19931;-71
2024/04/11 01:47:26;;;;;;;;;;;12.50;99.90;;;;;;9034051;26;19963;-72
2024/04/11 01:51:28;;;;;;;;;;;12.50;99.90;;;;;;9034194;26;19931;-72
2024/04/11 01:55:30;;;;;;;;;;;12.50;99.90;;;;;;9029794;26;20266;-72
2024/04/11 01:59:33;;;;;;;;;;;12.50;99.90;;;;;;9034923;26;19930;-72
2024/04/11 02:03:41;;;;;;;;;;;12.50;99.90;;;;;;9035029;26;20289;-72
2024/04/11 02:07:43;;;;;;;;;;;12.50;99.90;;;;;;9025260;26;19924;-72
2024/04/11 02:11:51;;;;;;;;;;;12.50;99.90;;;;;;9028795;26;19928;-72
2024/04/11 02:15:56;;;;;;;;;;;12.40;99.90;;;;;;9046229;26;20726;-71
2024/04/11 02:19:59;;;;;;;;;;;12.40;99.90;;;;;;9075194;26;19960;-72
2024/04/11 02:24:01;;;;;;;;;;;12.40;99.90;;;;;;9054734;26;20355;-72
2024/04/11 02:28:03;;;;;;;;;;;12.40;99.90;;;;;;9037070;26;19940;-73
2024/04/11 02:32:05;;;;;;;;;;;12.40;99.90;;;;;;9038442;26;19924;-72
2024/04/11 02:36:08;;;;;;;;;;;12.40;99.90;;;;;;9037814;26;19923;-72
2024/04/11 02:40:10;;;;;;;;;;;12.40;99.90;;;;;;9043187;26;20267;-71
2024/04/11 02:44:12;;;;;;;;;;;12.40;99.90;;;;;;9049009;26;19932;-72
2024/04/11 02:48:14;;;;;;;;;;;12.40;99.90;;;;;;9024933;26;19981;-72
2024/04/11 02:52:15;;;;;;;;;;;12.50;99.90;;;;;;9043508;26;19931;-72
2024/04/11 02:56:17;;;;;;;;;;;12.40;99.90;;;;;;9037524;26;19924;-72
2024/04/11 03:00:19;;;;;;;;;;;12.40;99.90;;;;;;9040221;26;20254;-72
2024/04/11 03:04:21;;;;;;;;;;;12.40;99.90;;;;;;9080290;26;20287;-71
2024/04/11 03:08:23;;;;;;;;;;;12.40;99.90;;;;;;9044340;26;20445;-72
2024/04/11 03:12:25;;;;;;;;;;;12.40;99.90;;;;;;9040785;26;19924;-72
2024/04/11 03:16:30;;;;;;;;;;;12.40;99.90;;;;;;9049049;26;19930;-72
2024/04/11 03:20:32;;;;;;;;;;;12.40;99.90;;;;;;9026496;26;23208;-72
2024/04/11 03:24:34;;;;;;;;;;;12.40;99.90;;;;;;9035687;26;19924;-72
2024/04/11 03:28:36;;;;;;;;;;;12.40;99.90;;;;;;9042335;26;19932;-71
2024/04/11 03:32:38;;;;;;;;;;;12.40;99.90;;;;;;9047986;26;19924;-72
2024/04/11 03:36:44;;;;;;;;;;;12.40;99.90;;;;;;9031218;26;19999;-72
2024/04/11 03:40:55;;;;;;;;;;;12.40;99.90;;;;;;9048835;26;19923;-71
2024/04/11 03:45:10;;;;;;;;;;;12.40;99.90;;;;;;9045841;26;20262;-72
2024/04/11 03:49:13;;;;;;;;;;;12.40;99.90;;;;;;9033737;26;20917;-72
2024/04/11 03:53:15;;;;;;;;;;;12.40;99.90;;;;;;9039259;26;19930;-71
2024/04/11 03:57:17;;;;;;;;;;;12.40;99.90;;;;;;9043959;26;20273;-71
2024/04/11 04:01:21;;;;;;;;;;;12.30;99.90;;;;;;9053782;26;20263;-71
2024/04/11 04:05:24;;;;;;;;;;;12.30;99.90;;;;;;9034219;26;19966;-72
2024/04/11 04:09:26;;;;;;;;;;;12.30;99.90;;;;;;9047802;26;19932;-71
2024/04/11 04:13:28;;;;;;;;;;;12.30;99.90;;;;;;9032973;26;19935;-72
2024/04/11 04:17:30;;;;;;;;;;;12.30;99.90;;;;;;9045476;26;19932;-72
2024/04/11 04:21:33;;;;;;;;;;;12.40;99.90;;;;;;9045432;26;19932;-71
2024/04/11 04:25:38;;;;;;;;;;;12.40;99.90;;;;;;9052956;26;22126;-71
2024/04/11 04:29:42;;;;;;;;;;;12.30;99.90;;;;;;9041249;26;19932;-71
2024/04/11 04:33:50;;;;;;;;;;;12.40;99.90;;;;;;9034480;26;19931;-72
2024/04/11 04:37:52;;;;;;;;;;;12.30;99.90;;;;;;9037103;26;19923;-72
2024/04/11 04:41:53;;;;;;;;;;;12.30;99.90;;;;;;9041588;26;19931;-72
2024/04/11 04:45:57;;;;;;;;;;;12.40;99.90;;;;;;9031621;26;19932;-72
2024/04/11 04:49:59;;;;;;;;;;;12.30;99.90;;;;;;9018882;26;19924;-71
2024/04/11 04:54:01;;;;;;;;;;;12.40;99.90;;;;;;9043811;26;19925;-72
2024/04/11 04:58:03;;;;;;;;;;;12.40;99.90;;;;;;9036655;26;19924;-72
2024/04/11 05:02:06;;;;;;;4.50;1.38;;;12.40;99.90;;;;;;9024982;26;20538;-72
2024/04/11 05:06:09;;;;;;;5.10;1.48;;;12.40;99.90;;;;;;9028748;26;20018;-72
2024/04/11 05:10:12;;;;;;;;;;;12.50;99.90;;;;;;9041069;26;20000;-72
2024/04/11 05:14:16;;;;;;;;;;;12.50;99.90;;;;;;9071438;26;19928;-72
2024/04/11 05:18:17;;;;;;;;;;;12.50;99.90;;;;;;9025909;26;20257;-72
2024/04/11 05:22:22;;;;;;;;;;;12.50;99.90;;;;;;9023789;26;19940;-71
2024/04/11 05:26:24;;;;;;;;;;;12.50;99.90;;;;;;9026333;26;19978;-72
2024/04/11 05:30:27;;;;;;;;;;;12.50;99.90;;;;;;9046626;26;19928;-72
2024/04/11 05:34:29;;;;;;;;;;;12.50;99.90;;;;;;9027196;26;19934;-72
2024/04/11 05:38:37;;;;;;;;;;;12.50;99.90;;;;;;9029978;26;20422;-72
2024/04/11 05:42:44;;;;;;;;;;;12.50;99.90;;;;;;9063976;26;19936;-72
2024/04/11 05:46:46;;;;;;;4.17;1.50;;;12.50;99.90;;;;;;9045662;26;19939;-72
2024/04/11 05:50:50;;;;;;;4.80;1.60;;;12.50;99.90;;;;;;9023819;26;20003;-72
2024/04/11 05:54:52;;;;;;;5.68;1.70;;;12.50;99.90;;;;;;9030650;26;20014;-72
2024/04/11 05:58:54;;;;;;;3.35;1.75;;;12.60;99.90;;;;;;9050917;26;20017;-72
2024/04/11 06:02:56;;;;;;;3.50;1.42;;;12.50;99.90;;;;;;9057655;26;20002;-72
2024/04/11 06:06:58;;;;;;;4.55;1.55;;;12.50;99.90;;;;;;9064489;26;20033;-72
2024/04/11 06:11:00;;;;;;;3.90;1.48;;;12.40;99.90;;;;;;9051462;26;20012;-72
2024/04/11 06:15:02;;;;;;;;;;;12.30;99.90;;;;;;9042633;26;20292;-72
2024/04/11 06:19:05;;;;;;;;;;;12.20;99.90;;;;;;9030779;26;19928;-72
2024/04/11 06:23:12;;;;;;;;;;;12.20;99.90;;;;;;9047583;26;20072;-72
2024/04/11 06:27:15;;;;;;;4.80;1.70;;;12.20;99.90;;;;;;9042927;26;20355;-73
2024/04/11 06:31:17;;;;;;;4.10;1.70;;;12.20;99.90;;;;;;9042005;26;20095;-73
2024/04/11 06:35:20;;;;;;;6.53;2.00;;;12.10;99.90;;;;;;9034868;26;20079;-73
2024/04/11 06:39:24;;;;;;;4.25;1.63;;;12.00;99.90;;;;;;9041825;26;19993;-73
2024/04/11 06:43:26;;;;;;;4.18;1.83;;;11.90;99.90;;;;;;9061809;26;19924;-73
2024/04/11 06:47:28;;;;;;;4.97;1.80;;;11.90;99.90;;;;;;9051894;26;20010;-73
2024/04/11 06:51:39;;;;;;;7.35;2.00;;;11.90;99.90;;;;;;9034221;26;20446;-73
2024/04/11 06:56:17;;;;;;;3.42;1.67;;;11.80;99.90;;;;;;9040670;26;20073;-72
2024/04/11 07:00:26;;;;;;;4.78;1.95;;;11.80;99.90;;;;;;9044342;26;20015;-73
2024/04/11 07:04:46;;;;;;;5.07;2.03;;;11.80;99.90;;;;;;9033421;26;20011;-73
2024/04/11 07:08:55;;;;;;;4.97;2.28;;;11.90;99.90;;;;;;9021107;26;20353;-72
2024/04/11 07:12:59;;;;;;;5.03;2.40;;;11.90;99.90;;;;;;9048407;26;20014;-73
2024/04/11 07:17:01;;;;;;;4.05;1.90;;;11.90;99.90;;;;;;9021539;26;20018;-72
2024/04/11 07:21:07;;;;;;;4.78;2.20;;;11.90;99.90;;;;;;9045698;26;20017;-72
2024/04/11 07:25:10;;;;;;;5.93;2.13;;;12.00;99.90;;;;;;9047036;26;20007;-72
2024/04/11 07:29:12;;;;;;;4.90;2.83;;;12.00;99.90;;;;;;9043545;26;20047;-72
2024/04/11 07:33:16;;;;;;;7.82;3.08;;;12.10;99.90;;;;;;9036331;26;20017;-72
2024/04/11 07:37:25;;;;;;;5.13;2.38;;;12.10;99.90;;;;;;9020386;26;20006;-72
2024/04/11 07:41:44;;;;;;;6.22;2.63;;;12.10;99.90;;;;;;9043266;26;20873;-72
2024/04/11 07:45:48;;;;;;;5.90;2.60;;;12.20;99.90;;;;;;9077102;26;20453;-72
2024/04/11 07:49:50;;;;;;;4.97;2.78;;;12.20;99.90;;;;;;9089222;26;20030;-72
2024/04/11 07:53:52;;;;;;;5.68;2.65;;;12.20;99.90;;;;;;9098304;26;20549;-72
2024/04/11 07:57:55;;;;;;;6.10;3.28;;;12.30;99.90;;;;;;9088180;25;20049;-72
2024/04/11 08:01:57;;;;;;;6.07;3.17;;;12.30;99.90;;;;;;9074683;26;20062;-72
2024/04/11 08:05:59;;;;;;;5.53;3.08;;;12.30;99.90;;;;;;9090753;25;20021;-72
2024/04/11 08:10:01;;;;;;;5.45;3.15;;;12.40;99.90;;;;;;9093931;26;20006;-72
2024/04/11 08:14:06;;;;;;;7.38;3.50;;;12.40;99.90;;;;;;9087531;26;20541;-72
2024/04/11 08:18:08;;;;;;;7.18;3.47;;;12.50;99.90;;;;;;9092497;25;20061;-73
2024/04/11 08:22:10;;;;;;;6.45;3.92;;;12.50;99.90;;;;;;9111533;26;20006;-72
2024/04/11 08:26:12;;;;;;;6.38;3.50;;;12.60;99.90;;;;;;9090733;26;20006;-72
2024/04/11 08:30:18;;;;;;;6.43;3.70;;;12.70;99.90;;;;;;9082912;26;20016;-72
2024/04/11 08:34:21;;;;;;;9.15;4.03;;;12.70;99.90;;;;;;9092165;26;20005;-72
2024/04/11 08:38:28;;;;;;;7.28;4.05;;;12.80;99.90;;;;;;9110149;25;20005;-72
2024/04/11 08:42:30;;;;;;;7.35;4.05;;;12.80;99.90;;;;;;9080338;26;20430;-72
2024/04/11 08:46:31;;;;;;;7.10;4.57;;;12.80;99.90;;;;;;9114070;26;20009;-72
2024/04/11 08:50:34;;;;;;;5.78;3.78;;;12.80;99.90;;;;;;9091138;26;20478;-72
2024/04/11 08:54:41;;;;;;;8.52;4.30;;;12.80;99.90;;;;;;9092039;26;20015;-72
2024/04/11 08:58:44;;;;;;;6.88;4.05;;;12.90;99.90;;;;;;9101323;25;20082;-72
2024/04/11 09:02:46;;;;;;;9.45;4.30;;;12.90;99.90;;;;;;9081719;26;20024;-72
2024/04/11 09:06:53;;;;;;;6.40;3.88;;;12.90;99.90;;;;;;9101001;26;20353;-72
2024/04/11 09:10:56;;;;;;;7.15;4.10;;;13.00;99.90;;;;;;9094767;26;20415;-72
2024/04/11 09:14:58;;;;;;;11.05;4.82;;;13.00;99.90;;;;;;9104417;26;20006;-72
2024/04/11 09:19:05;;;;;;;7.50;4.25;;;13.00;99.90;;;;;;9110650;26;20006;-72
2024/04/11 09:23:08;;;;;;;7.75;4.60;;;13.00;99.90;;;;;;9113875;26;20246;-72
2024/04/11 09:27:16;;;;;;;9.00;5.03;;;13.00;99.90;;;;;;9088003;26;20020;-72
2024/04/11 09:31:20;;;;;;;7.60;4.90;;;13.00;99.90;;;;;;9103115;26;19998;-73
2024/04/11 09:35:23;;;;;;;10.98;4.63;;;12.90;99.90;;;;;;9081995;25;20493;-73
2024/04/11 09:39:49;;;;;;;8.98;4.80;;;12.90;99.90;;;;;;9060712;25;20345;-72
2024/04/11 09:43:55;;;;;;;7.95;4.43;;;13.00;99.90;;;;;;9055761;26;20003;-72
2024/04/11 09:47:57;;;;;;;7.45;4.20;;;13.00;99.90;;;;;;9073850;26;20005;-72
2024/04/11 09:52:00;;;;;;;6.95;4.60;;;13.00;99.90;;;;;;9083196;26;20090;-73
2024/04/11 09:56:50;;;;;;;6.75;4.38;;;13.00;99.90;;;;;;9071758;26;20014;-72
2024/04/11 10:01:08;;;;;;;7.13;4.30;;;13.00;99.90;;;;;;9085971;25;20002;-73
2024/04/11 10:05:16;;;;;;;8.73;4.47;;;13.00;99.90;;;;;;9085325;26;20016;-72
2024/04/11 10:09:18;;;;;;;6.70;4.50;;;13.10;99.90;;;;;;9081505;25;20014;-72
2024/04/11 10:13:23;;;;;;;6.85;4.47;;;13.10;99.90;;;;;;9096033;26;25520;-72
2024/04/11 10:17:29;;;;;;;5.97;4.00;;;13.10;99.90;;;;;;9083158;25;20010;-72
2024/04/11 10:21:32;;;;;;;6.00;3.50;;;13.10;99.90;;;;;;9099341;25;20051;-72
2024/04/11 10:25:49;;;;;;;6.22;3.50;;;13.20;99.90;;;;;;9089495;25;20510;-72
2024/04/11 10:29:54;;;;;;;5.85;3.70;;;13.20;99.90;;;;;;9104796;25;20002;-72
2024/04/11 10:34:00;;;;;;;5.95;3.70;;;13.20;99.90;;;;;;9095359;25;20651;-73
2024/04/11 10:38:12;;;;;;;7.60;3.90;;;13.20;99.90;;;;;;9090226;26;20013;-72
2024/04/11 10:42:14;;;;;;;5.63;3.63;;;13.20;99.90;;;;;;9071307;26;20325;-73
2024/04/11 10:46:20;;;;;;;5.95;3.50;;;13.20;99.90;;;;;;9086178;26;20009;-72
2024/04/11 10:50:23;;;;;;;6.80;3.73;;;13.30;99.90;;;;;;9090238;25;19997;-72
2024/04/11 10:54:26;;;;;;;6.33;3.60;;;13.30;99.90;;;;;;9081915;26;20006;-72
2024/04/11 10:58:31;;;;;;;6.72;3.75;;;13.30;99.90;;;;;;9075736;25;20003;-73
2024/04/11 11:02:37;;;;;;;6.30;3.55;;;13.30;99.90;;;;;;9102323;25;20001;-73
2024/04/11 11:06:47;;;;;;;5.72;3.28;;;13.30;99.90;;;;;;9087667;26;20454;-73
2024/04/11 11:10:49;;;;;;;5.28;3.30;;;13.30;99.90;;;;;;9083443;25;20476;-73
2024/04/11 11:14:55;;;;;;;6.18;3.80;;;13.40;99.90;;;;;;9083708;26;20037;-74
2024/04/11 11:18:58;;;;;;;;;;;13.40;99.90;;;;;;9083986;26;20014;-73
2024/04/11 11:23:03;;;;;;;;;;;13.50;99.90;;;;;;9068870;26;20372;-73
2024/04/11 11:27:05;;;;;;;;;;;13.50;99.90;;;;;;9079964;26;19930;-72
2024/04/11 11:36:06;;;;;;;9.65;4.70;;;13.60;99.90;;;;;;9086609;25;20005;-73
2024/04/11 11:40:38;;;;;;;8.02;4.45;;;13.70;99.90;;;;;;9068153;26;20026;-73
2024/04/11 11:44:41;;;;;;;8.85;4.50;;;13.70;99.90;;;;;;9096731;26;20001;-72
2024/04/11 11:48:46;;;;;;;7.68;4.47;;;13.80;99.90;;;;;;9091577;26;20041;-72
2024/04/11 11:52:49;;;;;;;8.30;4.18;;;13.80;99.90;;;;;;9084317;25;20336;-73
2024/04/11 11:57:09;;;;;;;;;;;13.90;99.90;;;;;;9083586;26;20034;-72
2024/04/11 12:01:28;;;;;;;;;;;14.00;99.90;;;;;;9090106;26;20243;-72
2024/04/11 12:05:33;;;;;;;;;;;14.10;99.90;;;;;;9082050;26;20246;-72
2024/04/11 12:09:43;;;;;;;;;;;14.20;99.90;;;;;;9092768;25;19991;-72
2024/04/11 12:14:02;;;;;;;;;;;14.20;99.90;;;;;;9091818;26;19924;-72
2024/04/11 12:18:11;;;;;;;;;;;14.30;99.90;;;;;;9075972;26;19944;-72
2024/04/11 12:22:18;;;;;;;;;;;14.30;99.90;;;;;;9089722;25;19923;-73
2024/04/11 12:26:21;;;;;;;;;;;14.40;99.90;;;;;;9090721;25;20414;-72
2024/04/11 12:30:23;;;;;;;;;;;14.50;99.90;;;;;;9078761;26;19931;-72
2024/04/11 12:34:25;;;;;;;;;;;14.60;99.90;;;;;;9090832;25;19944;-73
2024/04/11 12:38:31;;;;;;;;;;;14.60;99.90;;;;;;9070357;26;19935;-72
2024/04/11 12:42:33;;;;;;;;;;;14.70;99.90;;;;;;9063587;26;20319;-72
2024/04/11 12:46:37;;;;;;;;;;;14.70;99.90;;;;;;9054390;26;19924;-72
2024/04/11 12:50:41;;;;;;;;;;;14.60;99.90;;;;;;9065264;25;19930;-72
2024/04/11 12:54:42;;;;;;;;;;;14.50;99.90;;;;;;9082981;25;19943;-72
2024/04/11 12:58:59;;;;;;;;;;;14.60;99.90;;;;;;9067736;25;19931;-72
2024/04/11 13:03:15;;;;;;;;;;;14.70;99.90;;;;;;9080272;26;19955;-73
2024/04/11 13:07:19;;;;;;;;;;;14.70;99.90;;;;;;9059871;25;20198;-72
2024/04/11 13:11:36;;;;;;;;;;;14.80;99.90;;;;;;9070716;25;19931;-72
2024/04/11 13:15:43;;;;;;;;;;;14.90;99.90;;;;;;9068394;26;20001;-72
2024/04/11 13:19:45;;;;;;;;;;;14.90;99.90;;;;;;9070571;26;19939;-73
2024/04/11 13:23:47;;;;;;;;;;;14.90;99.90;;;;;;9060304;26;19975;-72
2024/04/11 13:27:52;;;;;;;;;;;15.00;99.90;;;;;;9068814;25;20018;-72
2024/04/11 13:31:57;;;;;;;;;;;15.00;99.90;;;;;;9071712;25;19935;-72
2024/04/11 13:36:04;;;;;;;;;;;15.00;99.90;;;;;;9069212;26;20048;-72
2024/04/11 13:44:32;;;;;;;;;;;15.00;99.90;;;;;;9082152;25;20348;-72
2024/04/11 13:48:49;;;;;;;;;;;15.10;99.90;;;;;;9086724;26;19928;-72
2024/04/11 13:52:52;;;;;;;;;;;15.10;99.90;;;;;;9081787;25;19929;-72
2024/04/11 13:57:00;;;;;;;;;;;15.20;99.90;;;;;;9083750;26;20338;-72
2024/04/11 14:01:02;;;;;;;;;;;15.10;99.90;;;;;;9092572;25;20259;-72
2024/04/11 14:05:09;;;;;;;;;;;15.00;99.90;;;;;;9086312;26;19939;-72
2024/04/11 14:09:17;;;;;;;;;;;15.00;99.90;;;;;;9095111;26;20423;-73
2024/04/11 14:13:19;;;;;;;;;;;15.10;99.90;;;;;;9097818;25;19927;-73
2024/04/11 14:17:23;;;;;;;;;;;15.10;99.90;;;;;;9087869;26;19960;-72
2024/04/11 14:26:04;;;;;;;;;;;15.10;99.90;;;;;;9101206;25;19937;-72
2024/04/11 14:30:06;;;;;;;;;;;15.10;99.90;;;;;;9087710;26;19940;-73
2024/04/11 14:38:19;;;;;;;;;;;15.10;99.90;;;;;;9086024;26;19936;-73
2024/04/11 14:42:24;;;;;;;;;;;15.10;99.90;;;;;;9090758;26;20027;-72
2024/04/11 14:46:26;;;;;;;;;;;15.10;99.90;;;;;;9083239;26;19935;-72
2024/04/11 14:50:27;;;;;;;;;;;15.10;99.90;;;;;;9075855;26;19935;-72
2024/04/11 14:54:29;;;;;;;;;;;15.10;99.90;;;;;;9073836;26;19939;-72
2024/04/11 14:58:37;;;;;;;;;;;15.10;99.90;;;;;;9077361;25;20912;-73
2024/04/11 15:02:41;;;;;;;;;;;15.10;99.90;;;;;;9090553;25;19938;-72
2024/04/11 15:06:44;;;;;;;;;;;15.20;99.90;;;;;;9102795;26;19928;-72
2024/04/11 15:10:50;;;;;;;;;;;15.20;99.90;;;;;;9104546;25;19939;-72
2024/04/11 15:14:51;;;;;;;;;;;15.20;99.90;;;;;;9077193;26;19938;-72
2024/04/11 15:18:53;;;;;;;;;;;15.20;99.90;;;;;;9059975;26;19997;-72
2024/04/11 15:22:55;;;;;;;;;;;15.10;99.90;;;;;;9085893;26;20367;-73
2024/04/11 15:26:57;;;;;;;;;;;15.10;99.90;;;;;;9109267;25;19928;-73
2024/04/11 15:31:52;;;;;;;;;;;15.20;99.90;;;;;;9063545;26;19928;-73
2024/04/11 15:35:21;;;;;;;;;;;15.20;99.90;;;;;;9058599;26;19967;-73
2024/04/11 15:39:28;;;;;;;;;;;15.20;99.90;;;;;;9071982;25;19962;-72
2024/04/11 15:43:36;;;;;;;;;;;15.10;99.90;;;;;;9060521;26;19928;-73
2024/04/11 15:47:41;;;;;;;;;;;15.10;99.90;;;;;;9069703;26;19935;-72
2024/04/11 15:51:50;;;;;;;;;;;15.10;99.90;;;;;;9078252;26;19939;-73
2024/04/11 15:55:53;;;;;;;;;;;15.10;99.90;;;;;;9078354;26;19927;-72
2024/04/11 15:59:58;;;;;;;;;;;15.00;99.90;;;;;;9092275;26;19933;-72
2024/04/11 16:04:02;;;;;;;;;;;14.90;99.90;;;;;;9084422;26;19927;-72
2024/04/11 16:08:10;;;;;;;;;;;14.90;99.90;;;;;;9089319;26;19928;-73
2024/04/11 16:12:12;;;;;;;;;;;14.90;99.90;;;;;;9079953;26;19939;-73
2024/04/11 16:16:14;;;;;;;;;;;14.90;99.90;;;;;;9087599;26;19939;-72
2024/04/11 16:20:16;;;;;;;;;;;14.90;99.90;;;;;;9060820;26;19948;-72
2024/04/11 16:28:39;;;;;;;;;;;14.80;99.90;;;;;;9062972;26;21436;-73
2024/04/11 16:32:41;;;;;;;;;;;14.70;99.90;;;;;;9057752;26;19928;-73
2024/04/11 16:36:46;;;;;;;;;;;14.70;99.90;;;;;;9065888;26;19934;-73
2024/04/11 16:40:53;;;;;;;;;;;14.70;99.90;;;;;;9067549;26;19927;-72
2024/04/11 16:49:09;;;;;;;;;;;14.70;99.90;;;;;;9062000;26;20045;-73
2024/04/11 16:53:26;;;;;;;;;;;14.70;99.90;;;;;;9075906;26;19955;-73
2024/04/11 16:57:29;;;;;;;;;;;14.70;99.90;;;;;;9079290;26;19927;-73
2024/04/11 17:01:31;;;;;;;;;;;14.70;99.90;;;;;;9067322;26;20249;-72
2024/04/11 17:05:40;;;;;;;;;;;14.70;99.90;;;;;;9073839;26;19975;-73
2024/04/11 17:09:42;;;;;;;;;;;14.70;99.90;;;;;;9063334;26;19957;-73
2024/04/11 17:13:45;;;;;;;;;;;14.70;99.90;;;;;;9063204;26;19980;-73
2024/04/11 17:21:57;;;;;;;;;;;14.60;99.90;;;;;;9080568;26;19927;-73
2024/04/11 17:26:01;;;;;;;;;;;14.60;99.90;;;;;;9079387;26;19931;-73
2024/04/11 17:30:13;;;;;;;;;;;14.60;99.90;;;;;;9061928;26;19944;-72
2024/04/11 17:34:15;;;;;;;;;;;14.50;99.90;;;;;;9074252;26;19955;-73
2024/04/11 17:42:42;;;;;;;;;;;14.50;99.90;;;;;;9078708;26;19928;-73
2024/04/11 17:51:07;;;;;;;;;;;14.50;99.90;;;;;;9056340;26;19960;-73
2024/04/11 17:55:24;;;;;;;;;;;14.50;99.90;;;;;;9080985;26;19976;-73
2024/04/11 17:59:29;;;;;;;;;;;14.40;99.90;;;;;;9076066;25;19935;-72
2024/04/11 18:03:32;;;;;;;;;;;14.50;99.90;;;;;;9085922;26;20360;-72
2024/04/11 18:07:34;;;;;;;;;;;14.40;99.90;;;;;;9072921;26;19936;-73
2024/04/11 18:11:46;;;;;;;;;;;14.40;99.90;;;;;;9073783;26;19927;-73
2024/04/11 18:15:59;;;;;;;;;;;14.40;99.90;;;;;;9070412;26;19936;-73
2024/04/11 18:20:10;;;;;;;;;;;14.30;99.90;;;;;;9063692;26;20331;-72
2024/04/11 18:24:14;;;;;;;;;;;14.30;99.90;;;;;;9069426;26;19927;-72
2024/04/11 18:28:16;;;;;;;;;;;14.30;99.90;;;;;;9059620;25;19945;-73
2024/04/11 18:32:23;;;;;;;;;;;14.20;99.90;;;;;;9073777;26;19939;-72
2024/04/11 18:36:30;;;;;;;;;;;14.20;99.90;;;;;;9078081;26;19933;-72
2024/04/11 18:44:50;;;;;;;;;;;14.10;99.90;;;;;;9074571;25;19928;-73
2024/04/11 18:48:58;;;;;;;;;;;14.10;99.90;;;;;;9077692;26;20525;-73
2024/04/11 18:53:07;;;;;;;;;;;14.10;99.90;;;;;;9082277;26;19935;-73
2024/04/11 18:57:12;;;;;;;;;;;14.20;99.90;;;;;;9080055;26;19940;-73
2024/04/11 19:01:17;;;;;;;;;;;14.20;99.90;;;;;;9079429;26;19928;-73
2024/04/11 19:05:20;;;;;;;;;;;14.20;99.90;;;;;;9067301;26;19944;-73
2024/04/11 19:09:28;;;;;;;;;;;14.20;99.90;;;;;;9073094;26;19960;-73
2024/04/11 19:13:31;;;;;;;;;;;14.20;99.90;;;;;;9079419;26;19935;-73
2024/04/11 19:17:37;;;;;;;;;;;14.20;99.90;;;;;;9068472;25;20026;-72
2024/04/11 19:21:39;;;;;;;;;;;14.20;99.90;;;;;;9081381;26;20329;-73
2024/04/11 19:25:45;;;;;;;;;;;14.20;99.90;;;;;;9075922;26;19928;-72
2024/04/11 19:29:53;;;;;;;;;;;14.20;99.90;;;;;;9073886;26;19928;-73
2024/04/11 19:33:58;;;;;;;;;;;14.20;99.90;;;;;;9092516;26;19935;-73
2024/04/11 19:37:59;;;;;;;;;;;14.20;99.90;;;;;;9074581;26;20382;-73
2024/04/11 19:42:03;;;;;;;;;;;14.20;99.90;;;;;;9076594;26;19947;-73
2024/04/11 19:46:12;;;;;;;;;;;14.20;99.90;;;;;;9069618;26;19939;-73
2024/04/11 19:50:19;;;;;;;;;;;14.10;99.90;;;;;;9073941;26;20308;-73
2024/04/11 19:54:21;;;;;;;;;;;14.20;99.90;;;;;;9086949;26;19928;-72
2024/04/11 19:58:26;;;;;;;;;;;14.20;99.90;;;;;;9084323;26;19928;-73
2024/04/11 20:02:35;;;;;;;;;;;14.10;99.90;;;;;;9069863;26;19928;-72
2024/04/11 20:06:46;;;;;;;;;;;14.10;99.90;;;;;;9081034;26;19927;-73
2024/04/11 20:10:49;;;;;;;;;;;14.10;99.90;;;;;;9073726;26;19959;-73
2024/04/11 20:15:26;;;;;;;;;;;14.10;99.90;;;;;;9078966;25;19960;-73
2024/04/11 20:19:14;;;;;;;;;;;14.10;99.90;;;;;;9087809;26;20344;-73
2024/04/11 20:23:19;;;;;;;;;;;14.20;99.90;;;;;;9084334;25;19927;-72
2024/04/11 20:27:22;;;;;;;;;;;14.20;99.90;;;;;;9073010;26;19936;-73
2024/04/11 20:31:28;;;;;;;;;;;14.20;99.90;;;;;;9074381;26;19960;-73
2024/04/11 20:35:43;;;;;;;;;;;14.20;99.90;;;;;;9080182;26;20431;-73
2024/04/11 20:39:45;;;;;;;;;;;14.20;99.90;;;;;;9085017;26;19927;-73
2024/04/11 21:36:09;;;;;;;;;;;14.20;99.90;;;;;;9032716;26;19935;-72
2024/04/11 21:40:17;;;;;;;;;;;14.20;99.90;;;;;;9062045;26;19973;-72
2024/04/11 21:44:23;;;;;;;;;;;14.20;99.90;;;;;;9042931;26;20321;-72
2024/04/11 21:48:51;;;;;;;;;;;14.20;99.90;;;;;;9026642;26;19956;-72
2024/04/11 21:52:56;;;;;;;;;;;14.20;99.90;;;;;;9041441;26;20372;-72
2024/04/11 21:57:01;;;;;;;;;;;14.20;99.90;;;;;;9031531;26;20348;-72
2024/04/11 22:01:08;;;;;;;;;;;14.20;99.90;;;;;;9027095;26;19935;-73
2024/04/11 22:05:18;;;;;;;;;;;14.20;99.90;;;;;;9036683;26;19983;-72
2024/04/11 22:09:21;;;;;;;;;;;14.20;99.90;;;;;;9033347;26;19928;-73
2024/04/11 22:13:25;;;;;;;;;;;14.20;99.90;;;;;;9023471;26;19943;-72
2024/04/11 22:17:33;;;;;;;;;;;14.20;99.90;;;;;;9027978;26;19960;-72
2024/04/11 22:21:35;;;;;;;;;;;14.20;99.90;;;;;;9032516;26;20345;-72
2024/04/11 22:25:38;;;;;;;;;;;14.20;99.90;;;;;;9037884;26;19996;-72
2024/04/11 22:29:42;;;;;;;;;;;14.20;99.90;;;;;;9064428;26;19997;-72
2024/04/11 22:33:48;;;;;;;;;;;14.20;99.90;;;;;;9041904;26;19940;-72
2024/04/11 22:37:54;;;;;;;;;;;14.20;99.90;;;;;;9037073;26;19929;-73
2024/04/11 22:41:56;;;;;;;;;;;14.20;99.90;;;;;;9049720;26;20332;-72
2024/04/11 22:45:58;;;;;;;;;;;14.20;99.90;;;;;;9030627;26;19947;-72
2024/04/11 22:50:11;;;;;;;;;;;14.20;99.90;;;;;;9041277;26;19935;-72
2024/04/11 22:54:20;;;;;;;;;;;14.20;99.90;;;;;;9025484;26;19928;-73
2024/04/11 22:58:31;;;;;;;;;;;14.20;99.90;;;;;;9029645;26;19929;-73
2024/04/11 23:02:33;;;;;;;;;;;14.20;99.90;;;;;;9037015;26;19928;-72
2024/04/11 23:06:35;;;;;;;;;;;14.10;99.90;;;;;;9044355;26;20472;-73
2024/04/11 23:10:37;;;;;;;;;;;14.20;99.90;;;;;;9043876;26;19938;-72
2024/04/11 23:14:43;;;;;;;;;;;14.20;99.90;;;;;;9036897;26;19936;-73
2024/04/11 23:18:45;;;;;;;;;;;14.20;99.90;;;;;;9037950;26;19996;-73
2024/04/11 23:22:47;;;;;;;;;;;14.20;99.90;;;;;;9032251;26;19940;-73
2024/04/11 23:26:49;;;;;;;;;;;14.20;99.90;;;;;;9030866;26;19928;-72
2024/04/11 23:31:04;;;;;;;;;;;14.20;99.90;;;;;;9040898;26;19932;-72
2024/04/11 23:35:18;;;;;;;;;;;14.20;99.90;;;;;;9046683;26;19928;-72
2024/04/11 23:39:32;;;;;;;;;;;14.20;99.90;;;;;;9031388;26;19932;-72
2024/04/11 23:43:48;;;;;;;;;;;14.20;99.90;;;;;;9049881;26;19991;-72
2024/04/11 23:47:55;;;;;;;;;;;14.20;99.90;;;;;;9042308;26;19935;-72
2024/04/11 23:52:05;;;;;;;;;;;14.20;99.90;;;;;;9041173;26;19952;-72
